.
WxDataArchive / Data Records for 2015-03-21
2015-03-20 March 2015 2015-03-22

Data Records for Saturday, 21 March 2015

Time	Temp	Chill	HIndex	Humid	Dewpt	 Wind 	HiWind	WindDir	Rain 	Barom
-----	----	-----	------	-----	-----	------	------	-------	-----	-----
00:00	43.2	43.2	43.2	78	36.8	0	2	248	0.00	30.063 
00:05	43.2	43.2	43.2	78	36.8	0	2	248	0.00	30.063 
00:10	43.2	43.2	43.2	78	36.8	0	2	248	0.00	30.063 
00:15	43.3	43.3	43.3	78	36.9	0	2	248	0.00	30.058 
00:20	43.3	43.3	43.3	78	36.9	0	2	248	0.00	30.058 
00:25	43.3	43.3	43.3	78	36.9	0	2	248	0.00	30.058 
00:30	43.3	43.3	43.3	78	36.9	0	3	248	0.00	30.058 
00:35	43.3	43.3	43.3	78	36.9	0	2	248	0.00	30.058 
00:40	43.3	43.3	43.3	78	36.9	0	2	248	0.00	30.058 
00:45	43.3	43.3	43.3	78	36.9	0	2	248	0.00	30.055 
00:50	43.2	43.2	43.2	78	36.8	0	1	248	0.00	30.055 
00:55	42.9	42.9	42.9	78	36.5	0	2	248	0.00	30.055 
01:00	42.8	42.8	42.8	79	36.7	0	2	248	0.00	30.053 
01:05	42.5	42.5	42.5	79	36.5	0	1	248	0.00	30.053 
01:10	42.3	42.3	42.3	79	36.3	0	3	248	0.00	30.053 
01:15	42.2	42.2	42.2	80	36.5	0	1	248	0.00	30.049 
01:20	42.1	42.1	42.1	80	36.4	0	1	248	0.00	30.049 
01:25	41.9	41.9	41.9	81	36.5	0	3	248	0.00	30.049 
01:30	41.8	41.8	41.8	81	36.4	0	1	248	0.00	30.048 
01:35	41.6	41.6	41.6	81	36.2	0	5	248	0.00	30.048 
01:40	41.6	41.6	41.6	81	36.2	0	2	248	0.00	30.048 
01:45	41.6	41.6	41.6	82	36.5	1	3	248	0.00	30.051 
01:50	41.6	41.6	41.6	82	36.5	0	3	248	0.00	30.051 
01:55	41.6	41.6	41.6	82	36.5	0	2	248	0.00	30.051 
02:00	41.6	41.6	41.6	82	36.5	0	2	248	0.00	30.048 
02:05	41.5	41.5	41.5	82	36.4	0	2	248	0.00	30.048 
02:10	41.3	41.3	41.3	82	36.2	0	3	248	0.00	30.048 
02:15	41.3	41.3	41.3	83	36.5	0	3	248	0.00	30.050 
02:20	41.2	41.2	41.2	83	36.4	0	3	248	0.00	30.050 
02:25	41.2	41.2	41.2	83	36.4	0	2	248	0.00	30.050 
02:30	41.2	41.2	41.2	84	36.7	1	2	248	0.00	30.049 
02:35	41.1	41.1	41.1	84	36.6	0	2	248	0.00	30.049 
02:40	41.1	41.1	41.1	84	36.6	1	4	248	0.00	30.049 
02:45	41.1	41.1	41.1	84	36.6	1	4	248	0.00	30.047 
02:50	40.9	40.9	40.9	84	36.4	1	4	248	0.00	30.047 
02:55	40.9	40.9	40.9	84	36.4	0	2	248	0.00	30.047 
03:00	40.9	40.9	40.9	84	36.4	1	3	248	0.00	30.044 
03:05	40.9	40.9	40.9	84	36.4	1	3	248	0.00	30.044 
03:10	40.9	40.9	40.9	85	36.7	1	3	248	0.00	30.044 
03:15	40.8	40.8	40.8	85	36.6	1	3	248	0.00	30.040 
03:20	40.8	40.8	40.8	85	36.6	1	3	248	0.00	30.040 
03:25	40.6	40.6	40.6	85	36.4	1	3	248	0.00	30.040 
03:30	40.5	40.5	40.5	85	36.4	1	4	248	0.00	30.032 
03:35	40.3	40.3	40.3	85	36.2	1	3	248	0.00	30.032 
03:40	40.3	40.3	40.3	85	36.2	1	3	248	0.00	30.032 
03:45	40.2	40.2	40.2	85	36.1	1	3	248	0.00	30.020 
03:50	40.2	40.2	40.2	86	36.4	1	4	248	0.00	30.020 
03:55	40.2	40.2	40.2	86	36.4	0	2	248	0.00	30.020 
04:00	40.2	40.2	40.2	86	36.4	1	5	248	0.00	30.017 
04:05	40.3	40.3	40.3	86	36.5	1	3	248	0.00	30.017 
04:10	40.3	40.3	40.3	86	36.5	1	3	248	0.00	30.017 
04:15	40.3	40.3	40.3	86	36.5	1	4	248	0.00	30.015 
04:20	40.5	40.5	40.5	86	36.6	1	3	248	0.00	30.015 
04:25	40.5	40.5	40.5	86	36.6	1	4	248	0.00	30.015 
04:30	40.6	40.6	40.6	86	36.7	1	4	248	0.00	30.008 
04:35	40.6	40.6	40.6	86	36.7	1	6	248	0.00	30.008 
04:40	40.6	40.6	40.6	85	36.4	1	4	248	0.00	30.008 
04:45	40.8	40.8	40.8	85	36.6	1	4	248	0.00	30.009 
04:50	40.8	40.8	40.8	85	36.6	0	2	248	0.00	30.009 
04:55	40.8	40.8	40.8	85	36.6	1	3	248	0.00	30.009 
05:00	40.8	40.8	40.8	85	36.6	1	4	248	0.00	30.006 
05:05	40.8	40.8	40.8	85	36.6	1	4	248	0.00	30.006 
05:10	40.8	40.8	40.8	86	36.9	1	4	248	0.00	30.006 
05:15	40.8	40.8	40.8	85	36.6	1	3	248	0.00	30.004 
05:20	40.8	40.8	40.8	86	36.9	1	2	248	0.00	30.004 
05:25	40.8	40.8	40.8	86	36.9	1	2	248	0.00	30.004 
05:30	40.8	40.8	40.8	86	36.9	1	3	248	0.00	30.007 
05:35	40.8	40.8	40.8	86	36.9	1	3	248	0.00	30.007 
05:40	40.8	40.8	40.8	86	36.9	1	5	248	0.00	30.007 
05:45	40.8	40.8	40.8	86	36.9	2	4	248	0.00	30.006 
05:50	40.8	40.8	40.8	86	36.9	2	5	248	0.00	30.006 
05:55	40.6	40.6	40.6	87	37.0	2	5	248	0.00	30.006 
06:00	40.6	40.6	40.6	87	37.0	2	7	248	0.00	30.008 
06:05	40.6	40.6	40.6	87	37.0	2	6	248	0.00	30.008 
06:10	40.5	40.5	40.5	87	36.9	2	5	248	0.00	30.008 
06:15	40.5	40.5	40.5	87	36.9	2	6	248	0.00	30.003 
06:20	40.3	40.3	40.3	87	36.7	1	4	248	0.00	30.003 
06:25	40.3	40.3	40.3	87	36.7	0	2	248	0.00	30.003 
06:30	40.3	40.3	40.3	88	37.0	0	2	248	0.00	30.003 
06:35	40.2	40.2	40.2	88	36.9	0	3	248	0.00	30.003 
06:40	40.2	40.2	40.2	88	36.9	1	3	248	0.00	30.003 
06:45	40.1	40.1	40.1	88	36.8	1	3	248	0.00	30.000 
06:50	39.9	39.9	39.9	88	36.6	2	7	248	0.00	30.000 
06:55	39.9	39.9	39.9	88	36.6	1	3	248	0.00	30.000 
07:00	39.8	39.8	39.8	88	36.5	0	2	248	0.00	30.006 
07:05	39.8	39.8	39.8	88	36.5	0	2	248	0.00	30.006 
07:10	39.8	39.8	39.8	88	36.5	0	4	248	0.00	30.006 
07:15	39.6	39.6	39.6	88	36.3	1	4	248	0.00	30.009 
07:20	39.6	39.6	39.6	88	36.3	1	5	248	0.00	30.009 
07:25	39.6	39.6	39.6	88	36.3	1	4	248	0.00	30.009 
07:30	39.5	39.5	39.5	88	36.2	0	1	248	0.00	30.007 
07:35	39.5	39.5	39.5	88	36.2	0	3	248	0.00	30.007 
07:40	39.5	39.5	39.5	88	36.2	0	3	248	0.00	30.007 
07:45	39.5	39.5	39.5	88	36.2	0	2	248	0.00	30.008 
07:50	39.5	39.5	39.5	88	36.2	0	1	248	0.00	30.008 
07:55	39.5	39.5	39.5	88	36.2	0	3	248	0.00	30.008 
08:00	39.5	39.5	39.5	88	36.2	1	3	248	0.00	30.005 
08:05	39.5	39.5	39.5	88	36.2	0	2	248	0.00	30.005 
08:10	39.6	39.6	39.6	89	36.6	1	3	248	0.00	30.005 
08:15	39.5	39.5	39.5	89	36.5	1	6	270	0.00	30.005 
08:20	39.5	39.5	39.5	89	36.5	0	2	270	0.00	30.005 
08:25	39.5	39.5	39.5	89	36.5	1	5	292	0.00	30.005 
08:30	39.5	39.5	39.5	89	36.5	0	3	202	0.00	30.006 
08:35	39.5	39.5	39.5	89	36.5	0	4	248	0.00	30.006 
08:40	39.6	39.6	39.6	89	36.6	0	2	248	0.00	30.006 
08:45	39.6	39.6	39.6	89	36.6	1	4	248	0.00	30.011 
08:50	39.6	39.6	39.6	89	36.6	1	4	248	0.00	30.011 
08:55	39.6	39.6	39.6	89	36.6	1	4	248	0.00	30.011 
09:00	39.8	39.8	39.8	89	36.8	1	5	248	0.00	30.021 
09:05	39.8	39.8	39.8	89	36.8	1	5	248	0.00	30.021 
09:10	39.9	39.9	39.9	89	36.9	1	3	248	0.00	30.021 
09:15	40.1	40.1	40.1	89	37.1	1	4	248	0.00	30.030 
09:20	40.1	40.1	40.1	89	37.1	1	4	248	0.00	30.030 
09:25	40.2	40.2	40.2	88	36.9	1	4	248	0.00	30.030 
09:30	40.2	40.2	40.2	88	36.9	1	3	248	0.00	30.034 
09:35	40.3	40.3	40.3	88	37.0	1	5	248	0.00	30.034 
09:40	40.5	40.5	40.5	88	37.2	1	4	248	0.00	30.034 
09:45	40.6	40.6	40.6	88	37.3	0	2	248	0.00	30.036 
09:50	40.8	40.8	40.8	88	37.5	1	4	248	0.00	30.036 
09:55	40.9	40.9	40.9	87	37.3	1	6	248	0.00	30.036 
10:00	40.9	40.9	40.9	87	37.3	1	3	248	0.00	30.032 
10:05	41.1	41.1	41.1	87	37.5	1	5	270	0.00	30.032 
10:10	41.2	41.2	41.2	87	37.6	1	3	270	0.00	30.032 
10:15	41.3	41.3	41.3	87	37.7	1	3	270	0.00	30.038 
10:20	41.5	41.5	41.5	87	37.9	1	3	270	0.00	30.038 
10:25	41.6	41.6	41.6	87	38.0	1	4	270	0.00	30.038 
10:30	41.8	41.8	41.8	87	38.2	0	2	248	0.00	30.037 
10:35	41.9	41.9	41.9	87	38.3	0	2	248	0.00	30.037 
10:40	42.1	42.1	42.1	86	38.2	1	4	248	0.00	30.037 
10:45	42.2	42.2	42.2	86	38.3	1	4	248	0.00	30.045 
10:50	42.3	42.3	42.3	86	38.4	1	4	248	0.00	30.045 
10:55	42.5	42.5	42.5	86	38.6	1	2	248	0.00	30.045 
11:00	42.6	42.6	42.6	85	38.4	1	4	248	0.00	30.050 
11:05	42.8	42.8	42.8	85	38.6	1	3	248	0.00	30.050 
11:10	42.9	42.9	42.9	85	38.7	1	3	248	0.00	30.050 
11:15	42.9	42.9	42.9	84	38.4	2	5	248	0.00	30.056 
11:20	43.1	43.1	43.1	84	38.6	2	5	248	0.00	30.056 
11:25	43.1	43.1	43.1	83	38.3	2	4	270	0.00	30.056 
11:30	43.2	43.2	43.2	83	38.4	2	5	270	0.00	30.056 
11:35	43.3	43.3	43.3	82	38.2	2	6	315	0.00	30.056 
11:40	43.3	43.3	43.3	81	37.9	3	6	270	0.00	30.056 
11:45	43.3	43.3	43.3	81	37.9	2	3	270	0.00	30.053 
11:50	43.5	43.5	43.5	81	38.1	1	2	270	0.00	30.053 
11:55	43.6	43.6	43.6	80	37.8	2	5	270	0.00	30.053 
12:00	43.8	43.8	43.8	80	38.0	2	4	315	0.00	30.058 
12:05	43.9	43.9	43.9	80	38.1	1	3	315	0.00	30.058 
12:10	44.1	44.1	44.1	79	38.0	2	3	315	0.00	30.058 
12:15	44.2	44.2	44.2	79	38.1	2	4	292	0.00	30.064 
12:20	44.5	44.5	44.5	79	38.4	2	5	270	0.00	30.064 
12:25	44.8	44.8	44.8	78	38.4	1	5	270	0.00	30.064 
12:30	44.9	44.9	44.9	78	38.5	2	5	248	0.00	30.066 
12:35	44.9	44.9	44.9	77	38.1	2	4	292	0.00	30.066 
12:40	45.1	45.1	45.1	77	38.3	2	4	292	0.00	30.066 
12:45	45.2	45.2	45.2	76	38.1	3	4	270	0.00	30.077 
12:50	45.1	45.1	45.1	76	38.0	2	6	292	0.00	30.077 
12:55	45.1	45.1	45.1	76	38.0	2	4	292	0.00	30.077 
13:00	45.4	45.4	45.4	76	38.3	1	6	338	0.00	30.081 
13:05	45.5	45.5	45.5	75	38.0	2	4	270	0.00	30.081 
13:10	45.5	45.5	45.5	76	38.4	2	4	270	0.00	30.081 
13:15	46.4	46.4	46.4	77	39.6	1	4	315	0.00	30.084 
13:20	46.7	46.7	46.7	73	38.5	3	7	315	0.00	30.084 
13:25	46.5	46.5	46.5	72	38.0	3	7	338	0.00	30.084 
13:30	46.7	46.7	46.7	73	38.5	3	7	292	0.00	30.085 
13:35	46.8	46.8	46.8	73	38.6	3	9	270	0.00	30.085 
13:40	47.0	47.0	47.0	73	38.8	2	6	338	0.00	30.085 
13:45	47.0	47.0	47.0	72	38.4	3	5	292	0.00	30.087 
13:50	47.0	47.0	47.0	73	38.8	2	4	270	0.00	30.087 
13:55	47.4	47.4	47.4	72	38.8	3	5	270	0.00	30.087 
14:00	47.7	47.7	47.7	71	38.8	3	9	270	0.00	30.083 
14:05	48.0	48.0	48.0	72	39.4	3	7	338	0.00	30.083 
14:10	48.5	48.5	48.5	70	39.2	3	5	270	0.00	30.083 
14:15	48.9	48.9	48.9	68	38.8	3	6	292	0.00	30.083 
14:20	49.1	49.1	49.1	69	39.4	2	4	248	0.00	30.083 
14:25	49.5	49.5	49.5	67	39.0	2	6	315	0.00	30.083 
14:30	49.5	49.5	49.5	66	38.6	3	6	248	0.00	30.084 
14:35	49.4	49.4	49.4	66	38.5	3	6	338	0.00	30.084 
14:40	49.6	49.6	49.6	65	38.3	3	9	315	0.00	30.084 
14:45	49.8	49.8	49.8	64	38.1	3	7	270	0.00	30.080 
14:50	49.6	49.6	49.6	65	38.3	3	7	338	0.00	30.080 
14:55	49.9	49.9	49.9	65	38.6	3	7	338	0.00	30.080 
15:00	49.6	48.4	49.6	64	37.9	4	10	270	0.00	30.078 
15:05	49.8	49.8	49.8	64	38.1	3	10	292	0.00	30.078 
15:10	50.1	50.1	50.1	63	38.0	4	7	315	0.00	30.078 
15:15	50.5	50.5	50.5	64	38.8	3	5	292	0.00	30.078 
15:20	50.5	50.5	50.5	62	38.0	4	7	315	0.00	30.078 
15:25	50.4	50.4	50.4	62	37.9	4	7	292	0.00	30.078 
15:30	50.4	50.4	50.4	62	37.9	4	6	270	0.00	30.078 
15:35	50.5	50.5	50.5	62	38.0	3	9	338	0.00	30.078 
15:40	50.5	50.5	50.5	62	38.0	3	7	315	0.00	30.078 
15:45	50.5	50.5	50.5	62	38.0	3	10	338	0.00	30.078 
15:50	50.1	50.1	50.1	62	37.6	2	5	315	0.00	30.078 
15:55	49.9	49.9	49.9	62	37.4	2	6	315	0.00	30.078 
16:00	49.8	49.8	49.8	63	37.7	2	4	292	0.00	30.081 
16:05	49.6	49.6	49.6	64	37.9	1	3	292	0.00	30.081 
16:10	49.6	49.6	49.6	63	37.5	3	6	270	0.00	30.081 
16:15	49.5	49.5	49.5	64	37.8	1	5	292	0.00	30.079 
16:20	49.5	49.5	49.5	64	37.8	2	5	248	0.00	30.079 
16:25	50.2	50.2	50.2	61	37.3	2	10	270	0.00	30.079 
16:30	50.8	50.8	50.8	58	36.6	2	6	315	0.00	30.080 
16:35	51.1	51.1	51.1	57	36.4	2	5	270	0.00	30.080 
16:40	51.0	51.0	51.0	53	34.5	3	6	270	0.00	30.080 
16:45	50.4	50.4	50.4	54	34.4	3	10	338	0.00	30.084 
16:50	50.4	50.4	50.4	55	34.8	2	6	270	0.00	30.084 
16:55	51.4	51.4	51.4	53	34.8	2	10	270	0.00	30.084 
17:00	52.0	52.0	52.0	54	35.9	2	10	292	0.00	30.076 
17:05	51.9	51.9	51.9	53	35.3	2	4	270	0.00	30.076 
17:10	51.4	51.4	51.4	54	35.3	3	6	270	0.00	30.076 
17:15	51.6	51.6	51.6	53	35.0	2	4	270	0.00	30.077 
17:20	51.6	51.6	51.6	49	33.1	3	9	292	0.00	30.077 
17:25	51.6	51.6	51.6	44	30.4	4	9	315	0.00	30.077 
17:30	51.7	51.7	51.7	43	29.9	4	10	270	0.00	30.075 
17:35	51.9	51.9	51.9	39	27.7	3	7	315	0.00	30.075 
17:40	51.7	51.7	51.7	38	26.9	4	11	315	0.00	30.075 
17:45	51.6	51.6	51.6	39	27.5	3	10	315	0.00	30.078 
17:50	51.9	51.9	51.9	38	27.1	2	7	315	0.00	30.078 
17:55	51.6	51.6	51.6	38	26.8	3	7	292	0.00	30.078 
18:00	51.3	51.3	51.3	39	27.2	4	10	315	0.00	30.085 
18:05	51.0	51.0	51.0	38	26.3	3	9	0	0.00	30.085 
18:10	50.8	50.8	50.8	37	25.5	2	11	338	0.00	30.085 
18:15	50.2	50.2	50.2	33	22.2	4	11	315	0.00	30.091 
18:20	49.6	49.6	49.6	32	21.0	3	10	338	0.00	30.091 
18:25	49.2	49.2	49.2	34	22.0	3	7	338	0.00	30.091 
18:30	48.9	48.9	48.9	34	21.8	3	7	292	0.00	30.091 
18:35	48.8	47.5	48.8	35	22.4	4	9	292	0.00	30.091 
18:40	48.5	48.5	48.5	35	22.1	3	9	292	0.00	30.091 
18:45	48.2	48.2	48.2	34	21.2	3	9	338	0.00	30.094 
18:50	47.9	47.9	47.9	35	21.6	2	5	270	0.00	30.094 
18:55	47.7	47.7	47.7	34	20.7	3	7	315	0.00	30.094 
19:00	47.3	47.3	47.3	33	19.7	2	6	292	0.00	30.100 
19:05	47.1	47.1	47.1	34	20.2	1	5	0	0.00	30.100 
19:10	46.7	46.7	46.7	33	19.1	2	4	338	0.00	30.100 
19:15	46.1	46.1	46.1	30	16.4	3	9	338	0.00	30.115 
19:20	45.8	45.8	45.8	30	16.1	2	6	292	0.00	30.115 
19:25	45.5	45.5	45.5	30	15.9	1	4	315	0.00	30.115 
19:30	45.2	45.2	45.2	29	14.9	3	10	270	0.00	30.129 
19:35	44.8	44.8	44.8	30	15.3	1	4	270	0.00	30.129 
19:40	44.6	44.6	44.6	31	15.9	1	3	292	0.00	30.129 
19:45	44.3	44.3	44.3	32	16.3	1	3	292	0.00	30.134 
19:50	44.1	44.1	44.1	32	16.1	1	4	292	0.00	30.134 
19:55	43.9	43.9	43.9	32	16.0	2	5	315	0.00	30.134 
20:00	43.8	43.8	43.8	32	15.9	1	5	270	0.00	30.135 
20:05	43.5	43.5	43.5	32	15.6	0	3	270	0.00	30.135 
20:10	43.2	43.2	43.2	33	16.1	0	3	270	0.00	30.135 
20:15	42.8	42.8	42.8	34	16.4	0	1	270	0.00	30.144 
20:20	42.5	42.5	42.5	35	16.8	0	1	270	0.00	30.144 
20:25	42.3	42.3	42.3	35	16.6	0	3	270	0.00	30.144 
20:30	42.2	42.2	42.2	35	16.5	1	6	315	0.00	30.149 
20:35	42.3	42.3	42.3	34	16.0	1	5	315	0.00	30.149 
20:40	42.2	42.2	42.2	34	15.9	1	4	292	0.00	30.149 
20:45	42.2	42.2	42.2	35	16.5	0	3	270	0.00	30.157 
20:50	41.9	41.9	41.9	35	16.3	1	3	270	0.00	30.157 
20:55	41.8	41.8	41.8	36	16.8	0	2	270	0.00	30.157 
21:00	41.5	41.5	41.5	37	17.2	0	1	270	0.00	30.166 
21:05	41.3	41.3	41.3	38	17.6	0	1	270	0.00	30.166 
21:10	41.1	41.1	41.1	38	17.5	0	1	270	0.00	30.166 
21:15	40.8	40.8	40.8	39	17.8	0	2	270	0.00	30.165 
21:20	40.8	40.8	40.8	39	17.8	0	1	270	0.00	30.165 
21:25	40.5	40.5	40.5	40	18.1	0	1	270	0.00	30.165 
21:30	40.2	40.2	40.2	41	18.4	0	1	270	0.00	30.182 
21:35	40.1	40.1	40.1	41	18.3	0	0	---	0.00	30.182 
21:40	39.8	39.8	39.8	42	18.6	0	0	---	0.00	30.182 
21:45	39.5	39.5	39.5	42	18.3	0	0	---	0.00	30.188 
21:50	39.2	39.2	39.2	43	18.6	0	0	---	0.00	30.188 
21:55	38.8	38.8	38.8	43	18.2	0	0	---	0.00	30.188 
22:00	38.5	38.5	38.5	45	19.0	0	0	---	0.00	30.195 
22:05	38.3	38.3	38.3	45	18.8	0	1	270	0.00	30.195 
22:10	38.3	38.3	38.3	46	19.4	0	0	---	0.00	30.195 
22:15	38.2	38.2	38.2	46	19.3	0	0	---	0.00	30.199 
22:20	38.0	38.0	38.0	47	19.6	0	0	---	0.00	30.199 
22:25	37.8	37.8	37.8	47	19.4	0	0	---	0.00	30.199 
22:30	37.5	37.5	37.5	48	19.6	0	0	---	0.00	30.204 
22:35	37.3	37.3	37.3	49	19.9	0	1	270	0.00	30.204 
22:40	37.3	37.3	37.3	50	20.4	0	0	---	0.00	30.204 
22:45	37.3	37.3	37.3	50	20.4	0	1	270	0.00	30.210 
22:50	37.2	37.2	37.2	50	20.3	0	0	---	0.00	30.210 
22:55	37.0	37.0	37.0	50	20.1	0	0	---	0.00	30.210 
23:00	36.9	36.9	36.9	51	20.5	0	0	---	0.00	30.211 
23:05	36.6	36.6	36.6	51	20.2	0	0	---	0.00	30.211 
23:10	36.3	36.3	36.3	51	19.9	0	0	---	0.00	30.211 
23:15	36.0	36.0	36.0	52	20.1	0	0	---	0.00	30.211 
23:20	35.6	35.6	35.6	52	19.7	0	0	---	0.00	30.211 
23:25	35.3	35.3	35.3	53	19.9	0	0	---	0.00	30.211 
23:30	34.9	34.9	34.9	54	20.0	0	0	---	0.00	30.211 
23:35	34.4	34.4	34.4	55	19.9	0	0	---	0.00	30.211 
23:40	34.1	34.1	34.1	56	20.1	0	0	---	0.00	30.211 
23:45	33.8	33.8	33.8	57	20.2	0	0	---	0.00	30.208 
23:50	33.7	33.7	33.7	57	20.1	0	0	---	0.00	30.208 
23:55	33.4	33.4	33.4	58	20.2	0	0	---	0.00	30.208 

CoCoRaHS
IN-AL-39
A2 Web Hosting
Creative Commons License
GoDaddy
search engine by freefind advanced

loaded 2018-11-17 19:01:19 • last modified 2010-11-18 10:43:29
Privacy PolicyDisclaimer
• wx.awcolley.com is powered by PmWiki v.2002016 •
• all content (unless otherwise noted) © 2018 A W Colley